Hovedside
METAR-TAF:

METAR-TAF

Lufthavner :

Kirkenes lufthavn. Høybuktmoen

Kirkenes, Norge

breddegrad: 69-44N, lengdegrad: 029-54E, høyde over havet: 9 m

Gjeldene værobservasjon

Denne rapporten ble laget for 36 minutter siden, klokken 04:20 UTC
Vind 8 kt fra Sør-sørøst
Temperatur 1°C
Luftfuktighet 100%
Trykk 1007 hPa
Sikt 10 km eller mer
ingen skyer under 1500 m og ingen bygeskyer

METAR: ENKR 160420Z 16008KT CAVOK 01/01 Q1007 RMK WIND 731FT 23014KT

Tid: 06:56 (04:56 UTC)

Varsel

Denne rapporten ble laget for 2 timer og 56 minutter siden, klokken 02:00 UTC
Varsel gyldig fra 16. klokken 03 UTC til 16. klokken 12 UTC
Vind 8 kt fra Sør-sørvest
Sikt 10 km eller mer
Få skyer i en høyde av 2000 ft

TAF: ENKR 160200Z 1603/1612 21008KT 9999 FEW020

Værobservasjoner og værvarsel for over 4000 flyplasser (METAR- og TAF-rapporter).

Tilgjengelige stasjoner er representert av de røde og gule prikkene på kartet.

Hold musepekeren over prikken for å se navnet på stasjonen.

Klikk så for å se værobservasjoner og -varsler.

For å forandre kartet kan du klikke på den grønne knappen med svart kryss for å zoome inn, på den grønne knappen med strek for å zoome ut, eller på de grønne pilene for å se tilstøtende kart.


METAR-TAF: